« Back
NWS Peachtree City, Ga » Text Product » CSG Terminal Aerodrome Forecast


Printer-friendly Version
Current Version              Previous Versions:   1  2  3  4  5  6  7  8  9  

Terminal Aerodrome Forecast

791
FTUS42 KFFC 040540
TAFCSG
TAF
KCSG 040540Z 0406/0506 00000KT P6SM SKC
     FM041400 32004KT P6SM SCT040 SCT250
     FM041700 31005KT P6SM SCT050 BKN250=

USA.gov is the U.S. government's official web portal to all federal, state and local government web resources and services.